createdAt,value
2019-03-09T00:02:16.036Z,107.20
2019-03-09T00:04:47.549Z,105.60
2019-03-09T00:07:19.506Z,117.20
2019-03-09T00:09:51.256Z,115.00
2019-03-09T00:12:22.942Z,111.40
2019-03-09T00:14:54.550Z,115.60
2019-03-09T00:17:26.073Z,115.40
2019-03-09T00:19:59.534Z,124.20
2019-03-09T00:22:31.038Z,124.00
2019-03-09T00:25:10.975Z,123.00
2019-03-09T00:27:53.925Z,116.40
2019-03-09T00:30:39.927Z,128.80
2019-03-09T00:33:11.636Z,117.80
2019-03-09T00:35:43.373Z,108.20
2019-03-09T00:38:15.139Z,122.60
2019-03-09T00:40:48.076Z,116.60
2019-03-09T00:43:19.574Z,127.20
2019-03-09T00:45:51.379Z,104.40
2019-03-09T00:48:22.970Z,116.20
2019-03-09T00:50:54.232Z,109.80
2019-03-09T00:53:25.991Z,123.00
2019-03-09T00:55:57.321Z,117.40
2019-03-09T00:58:29.001Z,128.20
2019-03-09T01:01:00.561Z,120.00
2019-03-09T01:03:32.444Z,116.60
2019-03-09T01:06:03.860Z,114.00
2019-03-09T01:08:35.807Z,111.80
2019-03-09T01:11:07.465Z,108.00
2019-03-09T01:13:39.362Z,125.80
2019-03-09T01:16:11.098Z,119.20
2019-03-09T01:18:42.734Z,124.80
2019-03-09T01:21:14.499Z,122.80
2019-03-09T01:23:46.458Z,130.40
2019-03-09T01:26:18.434Z,134.80
2019-03-09T01:28:50.359Z,123.40
2019-03-09T01:31:22.068Z,118.00
2019-03-09T01:33:54.785Z,122.40
2019-03-09T01:36:26.926Z,115.00
2019-03-09T01:38:58.455Z,122.60
2019-03-09T01:41:30.087Z,102.40
2019-03-09T01:44:01.761Z,108.40
2019-03-09T01:46:33.399Z,110.80
2019-03-09T01:49:05.347Z,96.80
2019-03-09T01:51:37.034Z,117.40
2019-03-09T01:54:08.950Z,119.20
2019-03-09T01:56:40.443Z,119.20
2019-03-09T01:59:12.325Z,109.00
2019-03-09T02:01:44.157Z,116.00
2019-03-09T02:04:16.108Z,118.60
2019-03-09T02:06:47.675Z,131.80
2019-03-09T02:09:20.327Z,134.00
2019-03-09T02:11:52.226Z,123.00
2019-03-09T02:14:24.214Z,126.60
2019-03-09T02:16:56.022Z,122.60
2019-03-09T02:19:27.964Z,120.80
2019-03-09T02:21:59.863Z,128.00
2019-03-09T02:24:31.968Z,134.20
2019-03-09T02:27:03.311Z,119.80
2019-03-09T02:29:35.062Z,133.20
2019-03-09T02:32:06.862Z,131.80
2019-03-09T02:34:38.436Z,120.80
2019-03-09T02:37:10.262Z,123.40
2019-03-09T02:39:52.939Z,131.40
2019-03-09T02:42:24.253Z,135.00
2019-03-09T02:44:55.961Z,138.20
2019-03-09T02:47:27.605Z,123.00
2019-03-09T02:49:59.331Z,130.40
2019-03-09T02:52:30.967Z,132.00
2019-03-09T02:55:02.613Z,131.20
2019-03-09T02:57:34.292Z,129.80
2019-03-09T03:00:08.288Z,133.40
2019-03-09T03:02:43.596Z,137.00
2019-03-09T03:05:15.906Z,132.80
2019-03-09T03:07:48.563Z,145.80
2019-03-09T03:10:20.444Z,142.20
2019-03-09T03:12:52.423Z,145.80
2019-03-09T03:15:34.557Z,127.40
2019-03-09T03:18:06.840Z,156.80
2019-03-09T03:20:38.258Z,150.40
2019-03-09T03:23:10.045Z,149.00
2019-03-09T03:25:41.393Z,145.00
2019-03-09T03:28:13.203Z,132.40
2019-03-09T03:30:44.685Z,139.20
2019-03-09T03:33:16.638Z,141.00
2019-03-09T03:35:48.478Z,127.00
2019-03-09T03:38:20.541Z,137.20
2019-03-09T03:40:52.827Z,130.20
2019-03-09T03:43:24.228Z,137.80
2019-03-09T03:45:56.174Z,140.20
2019-03-09T03:48:27.936Z,129.40
2019-03-09T03:50:59.305Z,118.80
2019-03-09T03:53:31.314Z,110.00
2019-03-09T03:56:02.875Z,100.60
2019-03-09T03:58:34.963Z,108.60
2019-03-09T04:01:06.935Z,113.60
2019-03-09T04:03:38.791Z,108.40
2019-03-09T04:06:11.848Z,105.80
2019-03-09T04:08:44.206Z,119.20
2019-03-09T04:11:16.550Z,105.20
2019-03-09T04:13:49.610Z,91.40
2019-03-09T04:16:21.231Z,97.80
2019-03-09T04:18:53.067Z,91.40
2019-03-09T04:21:24.690Z,91.40
2019-03-09T04:23:56.563Z,85.00
2019-03-09T04:26:28.398Z,89.80
2019-03-09T04:29:00.464Z,90.40
2019-03-09T04:31:32.255Z,91.20
2019-03-09T04:34:04.286Z,94.00
2019-03-09T04:36:35.930Z,86.20
2019-03-09T04:39:08.133Z,87.60
2019-03-09T04:41:40.425Z,89.80
2019-03-09T04:44:12.183Z,79.60
2019-03-09T04:46:44.069Z,95.40
2019-03-09T04:49:15.560Z,88.00
2019-03-09T04:51:47.300Z,84.40
2019-03-09T04:54:18.778Z,86.60
2019-03-09T04:56:50.865Z,73.40
2019-03-09T04:59:22.462Z,78.80
2019-03-09T05:01:54.375Z,86.40
2019-03-09T05:04:54.904Z,86.60
2019-03-09T05:07:41.194Z,86.40
2019-03-09T05:10:32.581Z,69.00
2019-03-09T05:13:11.021Z,60.00
2019-03-09T05:15:42.496Z,60.20
2019-03-09T05:18:14.802Z,62.00
2019-03-09T05:20:46.366Z,59.80
2019-03-09T05:23:18.326Z,55.40
2019-03-09T05:25:50.142Z,55.40
2019-03-09T05:28:22.050Z,48.60
2019-03-09T05:30:53.533Z,52.80
2019-03-09T05:33:25.069Z,48.40
2019-03-09T05:35:56.587Z,50.20
2019-03-09T05:38:28.305Z,51.60
2019-03-09T05:40:59.806Z,53.80
2019-03-09T05:43:31.556Z,51.20
2019-03-09T05:46:03.366Z,52.40
2019-03-09T05:48:35.730Z,50.60
2019-03-09T05:51:07.209Z,44.00
2019-03-09T05:53:38.708Z,52.00
2019-03-09T05:56:10.297Z,54.60
2019-03-09T05:58:42.141Z,52.40
2019-03-09T06:01:13.631Z,51.60
2019-03-09T06:03:45.574Z,52.40
2019-03-09T06:06:18.776Z,52.00
2019-03-09T06:08:51.569Z,51.40
2019-03-09T06:11:23.083Z,49.60
2019-03-09T06:13:55.144Z,50.80
2019-03-09T06:16:27.107Z,48.20
2019-03-09T06:18:59.371Z,45.00
2019-03-09T06:21:30.889Z,41.00
2019-03-09T06:24:02.645Z,47.40
2019-03-09T06:26:34.061Z,34.60
2019-03-09T06:29:06.736Z,45.20
2019-03-09T06:31:38.441Z,44.00
2019-03-09T06:34:10.028Z,46.00
2019-03-09T06:37:02.587Z,45.60
2019-03-09T06:39:40.437Z,40.40
2019-03-09T06:42:39.744Z,46.60
2019-03-09T06:45:16.590Z,47.40
2019-03-09T06:47:48.193Z,44.20
2019-03-09T06:50:21.393Z,50.40
2019-03-09T06:52:52.718Z,45.60
2019-03-09T06:55:25.253Z,47.40
2019-03-09T06:57:56.794Z,48.60
2019-03-09T07:00:40.447Z,43.40
2019-03-09T07:03:13.525Z,44.40
2019-03-09T07:05:44.921Z,44.40
2019-03-09T07:08:16.419Z,41.60
2019-03-09T07:10:48.161Z,41.00
2019-03-09T07:13:19.990Z,37.00
2019-03-09T07:15:51.736Z,38.40
2019-03-09T07:18:29.547Z,37.60
2019-03-09T07:21:01.060Z,38.40
2019-03-09T07:23:33.161Z,41.00
2019-03-09T07:26:04.635Z,43.00
2019-03-09T07:28:36.322Z,38.00
2019-03-09T07:31:09.101Z,37.40
2019-03-09T07:33:42.161Z,35.20
2019-03-09T07:36:13.962Z,42.80
2019-03-09T07:38:45.810Z,38.80
2019-03-09T07:41:17.997Z,38.00
2019-03-09T07:43:50.044Z,39.60
2019-03-09T07:46:21.634Z,37.80
2019-03-09T07:48:53.114Z,33.00
2019-03-09T07:51:25.025Z,28.80
2019-03-09T07:53:56.831Z,34.60
2019-03-09T07:56:28.528Z,36.00
2019-03-09T07:59:00.121Z,32.80
2019-03-09T08:01:31.685Z,34.80
2019-03-09T08:04:03.242Z,29.60
2019-03-09T08:06:36.144Z,36.40
2019-03-09T08:09:08.277Z,38.60
2019-03-09T08:11:40.748Z,42.00
2019-03-09T08:14:12.575Z,30.20
2019-03-09T08:16:44.078Z,34.40
2019-03-09T08:19:15.688Z,34.60
2019-03-09T08:21:47.417Z,35.80
2019-03-09T08:24:18.781Z,36.00
2019-03-09T08:26:50.303Z,29.20
2019-03-09T08:29:22.098Z,38.40
2019-03-09T08:31:53.808Z,35.00
2019-03-09T08:34:25.636Z,36.60
2019-03-09T08:36:57.292Z,38.40
2019-03-09T08:39:28.940Z,32.60
2019-03-09T08:42:01.345Z,34.00
2019-03-09T08:44:32.785Z,26.80
2019-03-09T08:47:04.238Z,34.60
2019-03-09T08:49:35.753Z,35.80
2019-03-09T08:52:07.252Z,36.60
2019-03-09T08:54:38.855Z,43.20
2019-03-09T08:57:10.537Z,32.40
2019-03-09T08:59:42.043Z,36.00
2019-03-09T09:02:13.484Z,39.80
2019-03-09T09:04:45.397Z,32.80
2019-03-09T09:07:17.102Z,34.60
2019-03-09T09:09:49.298Z,36.60
2019-03-09T09:12:21.630Z,36.40
2019-03-09T09:14:53.462Z,31.40
2019-03-09T09:17:25.314Z,37.20
2019-03-09T09:19:56.987Z,37.20
2019-03-09T09:22:28.858Z,36.40
2019-03-09T09:25:00.561Z,34.80
2019-03-09T09:27:32.945Z,36.20
2019-03-09T09:30:05.049Z,37.40
2019-03-09T09:32:37.247Z,36.00
2019-03-09T09:35:10.235Z,36.20
2019-03-09T09:37:42.352Z,34.60
2019-03-09T09:40:17.295Z,35.80
2019-03-09T09:42:49.587Z,37.00
2019-03-09T09:45:21.711Z,37.60
2019-03-09T09:47:54.312Z,37.20
2019-03-09T09:50:29.056Z,34.00
2019-03-09T09:53:01.412Z,37.00
2019-03-09T09:55:33.337Z,35.80
2019-03-09T09:58:05.266Z,37.00
2019-03-09T10:00:38.130Z,36.75
2019-03-09T10:03:12.029Z,40.60
2019-03-09T10:05:44.655Z,38.20
2019-03-09T10:08:16.413Z,40.80
2019-03-09T10:10:48.584Z,36.60
2019-03-09T10:13:20.351Z,40.40
2019-03-09T10:15:52.221Z,38.20
2019-03-09T10:18:24.030Z,36.20
2019-03-09T10:20:55.502Z,39.60
2019-03-09T10:23:27.478Z,36.00
2019-03-09T10:26:00.050Z,31.00
2019-03-09T10:28:32.088Z,35.80
2019-03-09T10:31:05.483Z,38.40
2019-03-09T10:33:36.949Z,38.40
2019-03-09T10:36:08.769Z,39.60
2019-03-09T10:38:41.167Z,42.40
2019-03-09T10:41:13.426Z,43.00
2019-03-09T10:43:46.487Z,33.80
2019-03-09T10:46:18.798Z,36.00
2019-03-09T10:48:51.036Z,33.00
2019-03-09T10:51:22.814Z,35.20
2019-03-09T10:53:54.681Z,42.80
2019-03-09T10:56:28.088Z,39.00
2019-03-09T10:58:59.803Z,35.60
2019-03-09T11:01:31.329Z,36.00
2019-03-09T11:04:04.878Z,37.00
2019-03-09T11:06:36.527Z,37.00
2019-03-09T11:09:08.995Z,37.00
2019-03-09T11:11:41.278Z,37.20
2019-03-09T11:14:13.131Z,37.80
2019-03-09T11:16:44.689Z,36.20
2019-03-09T11:19:16.403Z,38.60
2019-03-09T11:21:47.997Z,38.20
2019-03-09T11:24:19.531Z,40.80
2019-03-09T11:26:51.007Z,38.40
2019-03-09T11:29:23.145Z,44.20
2019-03-09T11:31:54.934Z,38.40
2019-03-09T11:34:26.538Z,36.40
2019-03-09T11:36:58.207Z,40.60
2019-03-09T11:39:29.795Z,37.60
2019-03-09T11:42:01.577Z,33.60
2019-03-09T11:44:33.086Z,34.80
2019-03-09T11:47:04.914Z,36.20
2019-03-09T11:49:36.810Z,37.40
2019-03-09T11:52:16.297Z,37.80
2019-03-09T11:54:42.574Z,39.60
2019-03-09T11:57:14.467Z,37.40
2019-03-09T11:59:45.792Z,43.80
2019-03-09T12:02:17.485Z,39.00
2019-03-09T12:04:49.099Z,46.40
2019-03-09T12:07:20.791Z,47.00
2019-03-09T12:09:52.590Z,41.00
2019-03-09T12:12:24.613Z,40.80
2019-03-09T12:14:56.272Z,43.60
2019-03-09T12:17:28.036Z,34.60
2019-03-09T12:19:59.467Z,40.00
2019-03-09T12:22:31.411Z,43.60
2019-03-09T12:25:02.756Z,44.00
2019-03-09T12:27:34.000Z,40.00
2019-03-09T12:30:06.189Z,39.20
2019-03-09T12:32:37.818Z,45.80
2019-03-09T12:35:09.464Z,45.00
2019-03-09T12:37:41.365Z,43.00
2019-03-09T12:40:14.946Z,44.00
2019-03-09T12:42:46.732Z,45.80
2019-03-09T12:45:18.548Z,45.00
2019-03-09T12:47:50.924Z,44.80
2019-03-09T12:50:22.870Z,44.60
2019-03-09T12:52:54.871Z,44.40
2019-03-09T12:55:26.463Z,44.80
2019-03-09T12:57:58.132Z,43.00
2019-03-09T13:00:29.885Z,43.80
2019-03-09T13:03:01.464Z,44.80
2019-03-09T13:05:32.975Z,47.60
2019-03-09T13:08:04.658Z,52.00
2019-03-09T13:10:36.286Z,56.20
2019-03-09T13:13:07.758Z,59.80
2019-03-09T13:15:39.344Z,61.80
2019-03-09T13:18:11.343Z,58.20
2019-03-09T13:20:43.068Z,57.00
2019-03-09T13:23:14.778Z,57.20
2019-03-09T13:25:46.506Z,56.00
2019-03-09T13:28:18.148Z,55.00
2019-03-09T13:30:49.976Z,51.00
2019-03-09T13:33:21.416Z,49.40
2019-03-09T13:35:53.285Z,51.00
2019-03-09T13:38:25.112Z,52.60
2019-03-09T13:40:56.913Z,52.20
2019-03-09T13:43:29.789Z,50.00
2019-03-09T13:46:01.488Z,53.20
2019-03-09T13:48:33.246Z,52.40
2019-03-09T13:51:05.435Z,51.80
2019-03-09T13:53:37.785Z,55.60
2019-03-09T13:56:09.600Z,53.80
2019-03-09T13:58:41.337Z,55.00
2019-03-09T14:01:13.402Z,54.80
2019-03-09T14:03:45.805Z,59.40
2019-03-09T14:06:17.672Z,65.80
2019-03-09T14:08:49.716Z,66.20
2019-03-09T14:11:21.420Z,58.20
2019-03-09T14:13:53.248Z,58.60
2019-03-09T14:16:24.763Z,56.20
2019-03-09T14:18:57.179Z,55.00
2019-03-09T14:21:29.030Z,55.00
2019-03-09T14:24:01.210Z,55.80
2019-03-09T14:26:33.340Z,54.00
2019-03-09T14:29:05.251Z,54.40
2019-03-09T14:31:41.104Z,54.80
2019-03-09T14:34:12.867Z,51.40
2019-03-09T14:36:44.571Z,52.60
2019-03-09T14:39:16.318Z,53.20
2019-03-09T14:41:48.007Z,52.40
2019-03-09T14:44:19.898Z,52.20
2019-03-09T14:46:51.689Z,50.80
2019-03-09T14:49:23.418Z,54.40
2019-03-09T14:51:55.118Z,55.00
2019-03-09T14:54:27.102Z,54.80
2019-03-09T14:56:59.042Z,59.00
2019-03-09T14:59:30.959Z,56.40
2019-03-09T15:02:03.234Z,59.60
2019-03-09T15:04:34.972Z,59.20
2019-03-09T15:07:09.378Z,60.00
2019-03-09T15:09:41.241Z,66.40
2019-03-09T15:12:13.141Z,63.20
2019-03-09T15:14:45.078Z,66.00
2019-03-09T15:17:18.145Z,66.20
2019-03-09T15:19:49.856Z,63.40
2019-03-09T15:22:21.970Z,64.60
2019-03-09T15:24:53.422Z,67.40
2019-03-09T15:27:25.587Z,73.40
2019-03-09T15:29:57.563Z,81.00
2019-03-09T15:32:30.230Z,76.60
2019-03-09T15:35:02.078Z,79.20
2019-03-09T15:37:34.075Z,79.80
2019-03-09T15:40:06.756Z,94.20
2019-03-09T15:42:38.752Z,108.20
2019-03-09T15:45:11.315Z,95.80
2019-03-09T15:47:43.226Z,88.60
2019-03-09T15:50:15.778Z,88.60
2019-03-09T15:52:47.648Z,82.20
2019-03-09T15:55:20.238Z,87.40
2019-03-09T15:57:53.818Z,79.00
2019-03-09T16:00:25.700Z,89.40
2019-03-09T16:02:57.397Z,84.00
2019-03-09T16:05:29.217Z,89.80
2019-03-09T16:08:03.642Z,78.80
2019-03-09T16:10:35.990Z,85.40
2019-03-09T16:13:07.957Z,77.20
2019-03-09T16:15:39.843Z,85.20
2019-03-09T16:18:11.708Z,78.80
2019-03-09T16:20:43.428Z,80.00
2019-03-09T16:23:15.159Z,83.80
2019-03-09T16:25:46.843Z,75.20
2019-03-09T16:28:18.637Z,85.40
2019-03-09T16:30:50.350Z,69.60
2019-03-09T16:33:22.226Z,88.40
2019-03-09T16:35:54.164Z,84.00
2019-03-09T16:38:25.916Z,79.20
2019-03-09T16:40:57.653Z,82.60
2019-03-09T16:43:29.316Z,85.80
2019-03-09T16:46:00.955Z,80.60
2019-03-09T16:48:32.806Z,76.20
2019-03-09T16:51:04.369Z,69.40
2019-03-09T16:53:36.343Z,75.40
2019-03-09T16:56:08.110Z,72.80
2019-03-09T16:58:40.524Z,70.40
2019-03-09T17:01:12.444Z,70.80
2019-03-09T17:03:43.989Z,69.00
2019-03-09T17:06:15.856Z,64.80
2019-03-09T17:08:47.533Z,66.40
2019-03-09T17:11:19.230Z,65.00
2019-03-09T17:13:50.794Z,64.60
2019-03-09T17:16:22.141Z,65.60
2019-03-09T17:18:54.104Z,64.20
2019-03-09T17:21:25.738Z,64.00
2019-03-09T17:23:57.385Z,59.20
2019-03-09T17:26:28.999Z,62.00
2019-03-09T17:29:02.052Z,62.40
2019-03-09T17:31:33.656Z,63.20
2019-03-09T17:34:05.307Z,65.40
2019-03-09T17:36:37.184Z,62.80
2019-03-09T17:39:10.943Z,62.20
2019-03-09T17:41:43.242Z,62.00
2019-03-09T17:44:14.506Z,59.00
2019-03-09T17:46:46.084Z,58.00
2019-03-09T17:49:18.444Z,57.80
2019-03-09T17:51:49.904Z,60.00
2019-03-09T17:54:21.576Z,58.40
2019-03-09T17:56:53.263Z,58.40
2019-03-09T17:59:24.787Z,59.00
2019-03-09T18:01:56.233Z,59.60
2019-03-09T18:04:27.558Z,61.60
2019-03-09T18:06:58.908Z,62.00
2019-03-09T18:09:30.455Z,62.60
2019-03-09T18:12:02.298Z,62.20
2019-03-09T18:14:34.482Z,62.60
2019-03-09T18:17:06.351Z,64.40
2019-03-09T18:19:37.972Z,63.00
2019-03-09T18:22:09.770Z,60.00
2019-03-09T18:24:41.597Z,64.00
2019-03-09T18:27:13.208Z,63.60
2019-03-09T18:29:44.792Z,62.20
2019-03-09T18:32:17.192Z,64.00
2019-03-09T18:34:48.897Z,62.40
2019-03-09T18:37:20.480Z,64.00
2019-03-09T18:39:52.100Z,64.00
2019-03-09T18:42:24.397Z,74.80
2019-03-09T18:44:56.224Z,69.20
2019-03-09T18:47:27.570Z,69.60
2019-03-09T18:50:00.268Z,74.20
2019-03-09T18:52:33.148Z,63.60
2019-03-09T18:55:04.779Z,71.40
2019-03-09T18:57:36.814Z,72.80
2019-03-09T19:00:09.342Z,69.20
2019-03-09T19:02:41.372Z,68.20
2019-03-09T19:05:13.228Z,66.40
2019-03-09T19:07:44.982Z,71.80
2019-03-09T19:10:18.052Z,73.80
2019-03-09T19:12:49.835Z,75.00
2019-03-09T19:15:21.859Z,87.00
2019-03-09T19:17:54.049Z,77.00
2019-03-09T19:20:25.597Z,70.40
2019-03-09T19:22:57.652Z,72.40
2019-03-09T19:25:29.166Z,77.60
2019-03-09T19:28:01.226Z,78.40
2019-03-09T19:30:32.984Z,75.40
2019-03-09T19:33:05.153Z,73.60
2019-03-09T19:35:36.742Z,81.20
2019-03-09T19:38:08.686Z,82.60
2019-03-09T19:40:40.342Z,83.60
2019-03-09T19:43:11.996Z,79.80
2019-03-09T19:45:43.291Z,88.60
2019-03-09T19:48:14.983Z,94.20
2019-03-09T19:50:46.482Z,88.20
2019-03-09T19:53:18.228Z,81.40
2019-03-09T19:55:50.079Z,81.40
2019-03-09T19:58:21.929Z,78.20
2019-03-09T20:00:53.567Z,83.00
2019-03-09T20:03:25.108Z,87.00
2019-03-09T20:05:56.641Z,87.60
2019-03-09T20:08:28.316Z,90.60
2019-03-09T20:10:59.950Z,82.40
2019-03-09T20:13:31.934Z,93.40
2019-03-09T20:16:04.428Z,91.80
2019-03-09T20:18:36.498Z,78.60
2019-03-09T20:21:08.027Z,86.00
2019-03-09T20:23:39.942Z,89.00
2019-03-09T20:26:11.959Z,91.60
2019-03-09T20:28:43.610Z,86.20
2019-03-09T20:31:15.266Z,94.00
2019-03-09T20:33:47.161Z,89.40
2019-03-09T20:36:19.111Z,94.40
2019-03-09T20:38:52.061Z,90.40
2019-03-09T20:41:24.930Z,96.00
2019-03-09T20:43:56.533Z,94.40
2019-03-09T20:46:28.460Z,98.00
2019-03-09T20:49:00.303Z,93.20
2019-03-09T20:51:31.824Z,96.60
2019-03-09T20:54:03.357Z,88.00
2019-03-09T20:56:34.893Z,99.60
2019-03-09T20:59:06.743Z,91.80
2019-03-09T21:01:38.337Z,91.40
2019-03-09T21:04:09.903Z,99.40
2019-03-09T21:06:41.517Z,93.20
2019-03-09T21:09:13.319Z,89.00
2019-03-09T21:11:45.073Z,94.60
2019-03-09T21:14:16.606Z,90.20
2019-03-09T21:16:48.136Z,99.40
2019-03-09T21:19:19.766Z,101.00
2019-03-09T21:21:51.316Z,102.00
2019-03-09T21:24:22.742Z,100.20
2019-03-09T21:26:54.127Z,99.40
2019-03-09T21:29:25.896Z,102.40
2019-03-09T21:31:57.419Z,96.40
2019-03-09T21:34:29.083Z,100.60
2019-03-09T21:37:00.560Z,86.80
2019-03-09T21:39:32.117Z,96.60
2019-03-09T21:42:03.922Z,95.60
2019-03-09T21:44:35.495Z,95.00
2019-03-09T21:47:07.509Z,104.80
2019-03-09T21:49:39.087Z,108.00
2019-03-09T21:52:10.834Z,98.40
2019-03-09T21:54:42.504Z,99.80
2019-03-09T21:57:13.842Z,99.60
2019-03-09T21:59:45.506Z,103.60
2019-03-09T22:02:17.036Z,96.00
2019-03-09T22:04:48.680Z,102.60
2019-03-09T22:07:20.336Z,98.00
2019-03-09T22:09:51.943Z,107.00
2019-03-09T22:12:23.294Z,98.60
2019-03-09T22:14:54.942Z,99.60
2019-03-09T22:17:26.644Z,99.60
2019-03-09T22:19:58.526Z,91.80
2019-03-09T22:22:30.283Z,99.60
2019-03-09T22:25:02.012Z,93.60
2019-03-09T22:27:33.974Z,97.00
2019-03-09T22:30:06.004Z,96.00
2019-03-09T22:32:37.648Z,98.00
2019-03-09T22:35:10.495Z,99.20
2019-03-09T22:37:42.388Z,88.60
2019-03-09T22:40:14.116Z,99.80
2019-03-09T22:42:45.873Z,97.60
2019-03-09T22:45:17.706Z,90.60
2019-03-09T22:47:49.484Z,91.60
2019-03-09T22:50:39.343Z,86.20
2019-03-09T22:53:12.028Z,93.20
2019-03-09T22:55:43.612Z,94.80
2019-03-09T22:58:16.419Z,84.80
2019-03-09T23:00:48.024Z,88.80
2019-03-09T23:03:21.479Z,95.00
2019-03-09T23:05:53.030Z,83.80
2019-03-09T23:08:24.660Z,84.60
2019-03-09T23:10:56.355Z,83.80
2019-03-09T23:13:28.194Z,82.80
2019-03-09T23:15:59.649Z,86.80
2019-03-09T23:18:31.178Z,70.80
2019-03-09T23:21:02.568Z,86.20
2019-03-09T23:23:34.394Z,77.40
2019-03-09T23:26:05.826Z,85.80
2019-03-09T23:28:49.830Z,87.80
2019-03-09T23:31:21.495Z,88.00
2019-03-09T23:33:53.308Z,92.80
2019-03-09T23:36:24.890Z,78.00
2019-03-09T23:38:56.302Z,87.80
2019-03-09T23:41:27.774Z,89.60
2019-03-09T23:43:59.375Z,86.60
2019-03-09T23:46:31.072Z,89.40
2019-03-09T23:49:02.771Z,99.20
2019-03-09T23:51:34.704Z,101.00
2019-03-09T23:54:06.729Z,98.00
2019-03-09T23:56:38.329Z,98.00
2019-03-09T23:59:10.262Z,102.40
